createdAt,value
2022-09-24T00:01:23.941Z,14.34
2022-09-24T00:04:27.404Z,14.34
2022-09-24T00:07:28.777Z,14.35
2022-09-24T00:10:30.154Z,14.31
2022-09-24T00:13:33.487Z,14.31
2022-09-24T00:16:35.785Z,14.27
2022-09-24T00:19:37.317Z,14.25
2022-09-24T00:22:38.702Z,14.24
2022-09-24T00:26:05.526Z,14.28
2022-09-24T00:29:08.802Z,14.26
2022-09-24T00:32:10.347Z,14.25
2022-09-24T00:35:11.735Z,14.24
2022-09-24T00:38:13.218Z,14.25
2022-09-24T00:41:14.619Z,14.26
2022-09-24T00:44:54.006Z,14.29
2022-09-24T00:47:56.229Z,14.31
2022-09-24T00:50:57.631Z,14.31
2022-09-24T00:54:07.690Z,14.32
2022-09-24T00:57:09.166Z,14.30
2022-09-24T01:00:11.368Z,14.27
2022-09-24T01:03:20.023Z,14.22
2022-09-24T01:06:21.772Z,14.21
2022-09-24T01:09:26.353Z,14.16
2022-09-24T01:13:19.119Z,14.15
2022-09-24T01:16:49.602Z,14.14
2022-09-24T01:20:01.181Z,14.10
2022-09-24T01:23:23.769Z,14.12
2022-09-24T01:26:57.657Z,14.06
2022-09-24T01:30:11.610Z,14.03
2022-09-24T01:33:19.096Z,13.96
2022-09-24T01:36:22.394Z,13.90
2022-09-24T01:39:25.801Z,13.85
2022-09-24T01:42:30.549Z,13.82
2022-09-24T01:45:33.082Z,13.83
2022-09-24T01:48:37.570Z,13.80
2022-09-24T01:51:51.840Z,13.78
2022-09-24T01:54:56.388Z,13.73
2022-09-24T01:58:19.210Z,13.71
2022-09-24T02:01:31.451Z,13.69
2022-09-24T02:04:41.806Z,13.64
2022-09-24T02:08:04.041Z,13.61
2022-09-24T02:11:13.962Z,13.58
2022-09-24T02:14:15.588Z,13.48
2022-09-24T02:17:17.694Z,13.44
2022-09-24T02:20:22.145Z,13.41
2022-09-24T02:23:25.934Z,13.40
2022-09-24T02:26:27.444Z,13.37
2022-09-24T02:29:29.251Z,13.35
2022-09-24T02:32:34.220Z,13.31
2022-09-24T02:35:40.670Z,13.27
2022-09-24T02:38:43.109Z,13.23
2022-09-24T02:41:49.926Z,13.17
2022-09-24T02:44:52.401Z,13.14
2022-09-24T02:47:54.491Z,13.10
2022-09-24T02:50:55.880Z,13.10
2022-09-24T02:53:57.250Z,13.08
2022-09-24T02:56:58.645Z,13.09
2022-09-24T03:00:00.093Z,13.04
2022-09-24T03:03:01.516Z,13.03
2022-09-24T03:06:03.058Z,12.98
2022-09-24T03:09:05.501Z,12.97
2022-09-24T03:12:06.876Z,12.91
2022-09-24T03:15:08.508Z,12.86
2022-09-24T03:18:09.873Z,12.83
2022-09-24T03:21:12.995Z,12.88
2022-09-24T03:24:14.366Z,12.82
2022-09-24T03:27:16.179Z,12.80
2022-09-24T03:30:36.469Z,12.74
2022-09-24T03:33:39.399Z,12.55
2022-09-24T03:36:40.784Z,12.21
2022-09-24T03:39:42.163Z,12.08
2022-09-24T03:42:43.831Z,12.05
2022-09-24T03:45:45.590Z,12.05
2022-09-24T03:48:47.557Z,12.12
2022-09-24T03:51:50.188Z,12.24
2022-09-24T03:54:52.048Z,12.34
2022-09-24T03:57:53.435Z,12.40
2022-09-24T04:00:55.221Z,12.50
2022-09-24T04:03:56.607Z,12.54
2022-09-24T04:06:58.940Z,12.53
2022-09-24T04:10:00.413Z,12.50
2022-09-24T04:13:02.742Z,12.45
2022-09-24T04:16:05.369Z,12.38
2022-09-24T04:19:08.042Z,12.34
2022-09-24T04:22:09.692Z,12.26
2022-09-24T04:25:14.767Z,12.24
2022-09-24T04:28:16.374Z,12.16
2022-09-24T04:31:17.908Z,12.16
2022-09-24T04:34:20.770Z,12.22
2022-09-24T04:37:22.186Z,12.31
2022-09-24T04:40:23.618Z,12.42
2022-09-24T04:43:25.040Z,12.40
2022-09-24T04:46:26.496Z,12.43
2022-09-24T04:49:29.554Z,12.47
2022-09-24T04:52:33.220Z,12.36
2022-09-24T04:55:34.946Z,12.24
2022-09-24T04:58:36.557Z,12.16
2022-09-24T05:01:38.030Z,12.17
2022-09-24T05:04:39.543Z,12.01
2022-09-24T05:07:42.015Z,11.88
2022-09-24T05:10:43.760Z,11.88
2022-09-24T05:13:45.209Z,11.87
2022-09-24T05:16:46.569Z,11.88
2022-09-24T05:19:47.971Z,11.83
2022-09-24T05:22:50.498Z,11.87
2022-09-24T05:26:10.402Z,11.85
2022-09-24T05:29:11.840Z,11.84
2022-09-24T05:32:16.062Z,11.86
2022-09-24T05:35:21.545Z,12.00
2022-09-24T05:38:23.124Z,12.14
2022-09-24T05:41:24.499Z,12.23
2022-09-24T05:44:25.874Z,12.32
2022-09-24T05:47:27.237Z,12.38
2022-09-24T05:50:28.871Z,12.46
2022-09-24T05:53:30.374Z,12.46
2022-09-24T05:56:32.026Z,12.47
2022-09-24T05:59:33.509Z,12.54
2022-09-24T06:02:34.935Z,12.59
2022-09-24T06:05:36.585Z,12.64
2022-09-24T06:08:37.953Z,12.62
2022-09-24T06:11:40.990Z,12.64
2022-09-24T06:14:42.578Z,12.60
2022-09-24T06:17:43.963Z,12.65
2022-09-24T06:20:46.873Z,12.68
2022-09-24T06:23:48.539Z,12.73
2022-09-24T06:26:49.925Z,12.76
2022-09-24T06:29:51.312Z,12.77
2022-09-24T06:32:52.754Z,12.82
2022-09-24T06:35:54.205Z,12.87
2022-09-24T06:38:55.581Z,12.95
2022-09-24T06:41:58.364Z,12.98
2022-09-24T06:45:00.575Z,13.10
2022-09-24T06:48:03.838Z,13.16
2022-09-24T06:51:05.766Z,13.21
2022-09-24T06:54:07.142Z,13.29
2022-09-24T06:57:08.525Z,13.34
2022-09-24T07:00:11.297Z,13.38
2022-09-24T07:03:16.484Z,13.47
2022-09-24T07:06:17.892Z,13.51
2022-09-24T07:09:19.280Z,13.53
2022-09-24T07:12:20.645Z,13.60
2022-09-24T07:15:22.040Z,13.65
2022-09-24T07:18:23.465Z,13.69
2022-09-24T07:21:25.124Z,13.79
2022-09-24T07:24:26.495Z,13.92
2022-09-24T07:27:27.867Z,14.01
2022-09-24T07:30:29.494Z,14.10
2022-09-24T07:33:31.932Z,14.21
2022-09-24T07:36:33.521Z,14.34
2022-09-24T07:39:34.992Z,14.43
2022-09-24T07:42:37.167Z,14.50
2022-09-24T07:45:38.640Z,14.64
2022-09-24T07:48:40.031Z,14.68
2022-09-24T07:51:41.532Z,14.78
2022-09-24T07:54:42.989Z,14.96
2022-09-24T07:57:48.836Z,14.98
2022-09-24T08:00:50.321Z,15.09
2022-09-24T08:03:52.438Z,15.20
2022-09-24T08:06:53.943Z,15.24
2022-09-24T08:09:55.463Z,15.24
2022-09-24T08:13:01.624Z,15.18
2022-09-24T08:16:04.627Z,15.14
2022-09-24T08:19:06.314Z,15.01
2022-09-24T08:22:08.037Z,15.03
2022-09-24T08:25:09.711Z,14.96
2022-09-24T08:28:12.098Z,14.93
2022-09-24T08:31:13.845Z,14.95
2022-09-24T08:34:15.571Z,15.01
2022-09-24T08:37:18.064Z,15.06
2022-09-24T08:40:25.994Z,15.14
2022-09-24T08:44:04.226Z,15.24
2022-09-24T08:47:22.888Z,15.26
2022-09-24T08:50:27.105Z,15.40
2022-09-24T08:53:36.165Z,15.49
2022-09-24T08:56:43.899Z,15.52
2022-09-24T08:59:50.675Z,15.57
2022-09-24T09:03:09.469Z,15.63
2022-09-24T09:06:40.579Z,15.69
2022-09-24T09:09:48.239Z,15.69
2022-09-24T09:12:56.819Z,15.65
2022-09-24T09:16:06.476Z,15.70
2022-09-24T09:19:13.178Z,15.72
2022-09-24T09:22:16.619Z,15.73
2022-09-24T09:25:28.447Z,15.82
2022-09-24T09:28:29.959Z,15.77
2022-09-24T09:32:00.444Z,16.01
2022-09-24T09:35:29.655Z,16.36
2022-09-24T09:38:53.077Z,16.49
2022-09-24T09:42:06.228Z,16.60
2022-09-24T09:45:16.766Z,16.71
2022-09-24T09:48:22.226Z,16.75
2022-09-24T09:51:30.673Z,16.99
2022-09-24T09:54:39.462Z,16.99
2022-09-24T09:57:41.353Z,16.98
2022-09-24T10:00:43.814Z,16.99
2022-09-24T10:03:46.179Z,17.15
2022-09-24T10:06:47.643Z,17.23
2022-09-24T10:10:03.262Z,17.07
2022-09-24T10:13:08.938Z,17.09
2022-09-24T10:16:13.317Z,17.15
2022-09-24T10:19:20.378Z,17.23
2022-09-24T10:22:25.087Z,17.27
2022-09-24T10:25:28.667Z,17.28
2022-09-24T10:28:50.080Z,17.11
2022-09-24T10:31:51.550Z,17.13
2022-09-24T10:35:18.660Z,17.11
2022-09-24T10:38:24.993Z,17.06
2022-09-24T10:41:28.548Z,17.19
2022-09-24T10:44:35.956Z,17.22
2022-09-24T10:48:01.463Z,17.30
2022-09-24T10:51:28.771Z,17.35
2022-09-24T10:54:42.474Z,17.33
2022-09-24T10:57:59.538Z,17.48
2022-09-24T11:01:07.071Z,17.55
2022-09-24T11:04:42.326Z,17.60
2022-09-24T11:07:52.546Z,17.77
2022-09-24T11:11:01.501Z,17.86
2022-09-24T11:14:24.830Z,17.92
2022-09-24T11:17:38.314Z,17.89
2022-09-24T11:20:49.834Z,17.77
2022-09-24T11:24:27.161Z,17.88
2022-09-24T11:28:00.230Z,17.80
2022-09-24T11:31:20.021Z,17.70
2022-09-24T11:34:49.106Z,17.70
2022-09-24T11:38:00.297Z,17.70
2022-09-24T11:41:11.367Z,17.75
2022-09-24T11:44:21.157Z,17.75
2022-09-24T11:47:40.853Z,17.80
2022-09-24T11:51:11.690Z,17.85
2022-09-24T11:54:24.822Z,17.94
2022-09-24T11:57:30.431Z,17.99
2022-09-24T12:00:40.500Z,18.21
2022-09-24T12:03:49.354Z,18.35
2022-09-24T12:06:58.229Z,18.51
2022-09-24T12:10:04.813Z,18.37
2022-09-24T12:13:15.927Z,18.41
2022-09-24T12:16:33.138Z,18.54
2022-09-24T12:19:38.656Z,18.54
2022-09-24T12:22:43.049Z,18.51
2022-09-24T12:25:47.565Z,18.64
2022-09-24T12:29:44.111Z,18.73
2022-09-24T12:33:00.779Z,18.70
2022-09-24T12:36:15.363Z,18.83
2022-09-24T12:39:21.461Z,18.96
2022-09-24T12:42:27.133Z,18.98
2022-09-24T12:45:29.840Z,19.04
2022-09-24T12:48:36.417Z,19.38
2022-09-24T12:51:39.303Z,19.35
2022-09-24T12:54:41.260Z,18.99
2022-09-24T12:57:51.257Z,18.85
2022-09-24T13:01:06.583Z,18.70
2022-09-24T13:04:14.159Z,18.80
2022-09-24T13:07:29.925Z,19.02
2022-09-24T13:10:36.480Z,19.12
2022-09-24T13:13:43.333Z,18.92
2022-09-24T13:16:51.082Z,18.71
2022-09-24T13:20:07.113Z,18.82
2022-09-24T13:23:14.725Z,18.78
2022-09-24T13:26:25.032Z,18.77
2022-09-24T13:29:26.540Z,18.78
2022-09-24T13:32:29.390Z,18.80
2022-09-24T13:35:34.982Z,18.80
2022-09-24T13:39:06.344Z,18.96
2022-09-24T13:42:15.416Z,19.16
2022-09-24T13:45:22.438Z,19.14
2022-09-24T13:48:38.811Z,19.11
2022-09-24T13:51:41.625Z,19.13
2022-09-24T13:54:53.479Z,19.07
2022-09-24T13:57:56.045Z,19.19
2022-09-24T14:01:00.145Z,19.48
2022-09-24T14:04:05.698Z,19.70
2022-09-24T14:07:07.213Z,19.82
2022-09-24T14:10:14.377Z,19.60
2022-09-24T14:13:21.361Z,19.49
2022-09-24T14:16:24.473Z,19.47
2022-09-24T14:19:25.935Z,19.78
2022-09-24T14:22:34.941Z,20.25
2022-09-24T14:25:39.716Z,20.51
2022-09-24T14:28:41.331Z,20.40
2022-09-24T14:31:52.113Z,20.35
2022-09-24T14:35:00.016Z,20.46
2022-09-24T14:38:06.516Z,20.33
2022-09-24T14:41:18.373Z,19.98
2022-09-24T14:44:25.324Z,19.73
2022-09-24T14:47:29.810Z,19.55
2022-09-24T14:50:37.705Z,19.55
2022-09-24T14:53:39.673Z,19.50
2022-09-24T14:56:41.048Z,19.51
2022-09-24T14:59:42.719Z,19.58
2022-09-24T15:02:48.357Z,19.66
2022-09-24T15:05:50.076Z,19.70
2022-09-24T15:09:03.327Z,19.61
2022-09-24T15:12:09.012Z,19.56
2022-09-24T15:15:16.820Z,19.56
2022-09-24T15:18:18.336Z,19.62
2022-09-24T15:21:19.706Z,19.59
2022-09-24T15:24:22.016Z,19.48
2022-09-24T15:27:32.122Z,19.50
2022-09-24T15:30:34.237Z,19.51
2022-09-24T15:33:35.686Z,19.40
2022-09-24T15:36:37.829Z,19.37
2022-09-24T15:39:39.883Z,19.37
2022-09-24T15:42:41.278Z,19.28
2022-09-24T15:45:42.899Z,19.30
2022-09-24T15:48:44.403Z,19.23
2022-09-24T15:51:45.776Z,19.21
2022-09-24T15:54:47.306Z,19.20
2022-09-24T15:57:48.882Z,19.09
2022-09-24T16:00:52.236Z,19.08
2022-09-24T16:03:54.170Z,19.11
2022-09-24T16:06:55.581Z,19.07
2022-09-24T16:09:56.982Z,19.01
2022-09-24T16:12:58.446Z,19.02
2022-09-24T16:16:04.635Z,19.00
2022-09-24T16:19:09.677Z,18.93
2022-09-24T16:22:11.138Z,18.88
2022-09-24T16:25:12.616Z,18.78
2022-09-24T16:28:13.981Z,18.68
2022-09-24T16:31:15.506Z,18.65
2022-09-24T16:34:17.238Z,18.59
2022-09-24T16:37:18.701Z,18.56
2022-09-24T16:40:20.146Z,18.58
2022-09-24T16:43:21.582Z,18.58
2022-09-24T16:46:23.370Z,18.56
2022-09-24T16:49:24.875Z,18.49
2022-09-24T16:52:26.286Z,18.49
2022-09-24T16:55:28.399Z,18.48
2022-09-24T16:58:32.717Z,18.50
2022-09-24T17:01:34.201Z,18.45
2022-09-24T17:04:36.682Z,18.43
2022-09-24T17:07:38.133Z,18.38
2022-09-24T17:10:43.054Z,18.37
2022-09-24T17:13:47.287Z,18.31
2022-09-24T17:16:48.798Z,18.30
2022-09-24T17:19:50.168Z,18.31
2022-09-24T17:22:51.544Z,18.25
2022-09-24T17:26:14.075Z,18.23
2022-09-24T17:29:15.572Z,18.21
2022-09-24T17:32:16.955Z,18.15
2022-09-24T17:35:18.720Z,18.13
2022-09-24T17:38:20.412Z,18.11
2022-09-24T17:41:23.303Z,18.07
2022-09-24T17:44:24.678Z,18.07
2022-09-24T17:47:46.076Z,18.06
2022-09-24T17:50:54.014Z,18.01
2022-09-24T17:53:55.471Z,18.04
2022-09-24T17:56:56.938Z,18.03
2022-09-24T17:59:58.355Z,17.96
2022-09-24T18:02:59.864Z,17.93
2022-09-24T18:06:03.474Z,17.87
2022-09-24T18:09:05.365Z,17.75
2022-09-24T18:12:07.402Z,17.67
2022-09-24T18:15:09.033Z,17.52
2022-09-24T18:18:10.417Z,17.42
2022-09-24T18:21:13.518Z,17.32
2022-09-24T18:24:16.288Z,17.21
2022-09-24T18:27:17.661Z,17.18
2022-09-24T18:30:19.072Z,17.14
2022-09-24T18:33:20.473Z,17.11
2022-09-24T18:36:23.394Z,17.08
2022-09-24T18:39:25.705Z,17.11
2022-09-24T18:42:28.096Z,17.06
2022-09-24T18:45:30.255Z,16.66
2022-09-24T18:48:32.494Z,16.05
2022-09-24T18:51:37.548Z,15.57
2022-09-24T18:54:39.453Z,15.28
2022-09-24T18:57:40.852Z,15.01
2022-09-24T19:00:51.349Z,14.94
2022-09-24T19:03:53.945Z,14.71
2022-09-24T19:06:55.358Z,14.57
2022-09-24T19:09:57.018Z,14.50
2022-09-24T19:12:58.422Z,14.42
2022-09-24T19:16:14.098Z,14.38
2022-09-24T19:19:16.073Z,14.37
2022-09-24T19:22:17.465Z,14.57
2022-09-24T19:25:18.850Z,14.69
2022-09-24T19:28:20.231Z,14.75
2022-09-24T19:31:24.657Z,14.77
2022-09-24T19:34:26.184Z,14.63
2022-09-24T19:37:29.163Z,14.48
2022-09-24T19:40:30.931Z,14.44
2022-09-24T19:43:34.087Z,14.44
2022-09-24T19:46:35.550Z,14.46
2022-09-24T19:49:36.995Z,14.46
2022-09-24T19:52:38.412Z,14.56
2022-09-24T19:55:39.793Z,14.64
2022-09-24T19:58:41.269Z,14.72
2022-09-24T20:01:43.045Z,14.79
2022-09-24T20:04:44.510Z,14.85
2022-09-24T20:07:46.374Z,14.86
2022-09-24T20:10:47.775Z,14.81
2022-09-24T20:13:50.237Z,14.89
2022-09-24T20:16:51.614Z,14.87
2022-09-24T20:19:53.070Z,14.85
2022-09-24T20:22:54.462Z,14.78
2022-09-24T20:26:14.632Z,14.84
2022-09-24T20:29:19.435Z,14.80
2022-09-24T20:32:20.861Z,14.86
2022-09-24T20:35:22.229Z,14.88
2022-09-24T20:38:23.589Z,14.95
2022-09-24T20:41:25.775Z,14.97
2022-09-24T20:44:27.177Z,15.03
2022-09-24T20:47:28.553Z,15.04
2022-09-24T20:50:31.926Z,15.07
2022-09-24T20:53:34.541Z,15.09
2022-09-24T20:56:36.151Z,15.12
2022-09-24T20:59:37.601Z,15.09
2022-09-24T21:02:41.538Z,15.03
2022-09-24T21:05:43.966Z,14.98
2022-09-24T21:08:46.588Z,14.94
2022-09-24T21:11:50.149Z,14.90
2022-09-24T21:14:52.681Z,14.87
2022-09-24T21:18:18.449Z,14.77
2022-09-24T21:21:18.078Z,14.58
2022-09-24T21:24:19.902Z,14.51
2022-09-24T21:27:21.502Z,14.48
2022-09-24T21:30:22.894Z,14.44
2022-09-24T21:33:24.285Z,14.39
2022-09-24T21:36:29.176Z,14.31
2022-09-24T21:39:30.562Z,14.37
2022-09-24T21:42:32.190Z,14.44
2022-09-24T21:45:34.014Z,14.41
2022-09-24T21:48:35.570Z,14.38
2022-09-24T21:51:38.125Z,14.31
2022-09-24T21:54:39.658Z,14.21
2022-09-24T21:57:41.105Z,14.17
2022-09-24T22:00:42.854Z,14.21
2022-09-24T22:03:51.684Z,14.24
2022-09-24T22:06:53.317Z,14.32
2022-09-24T22:09:54.681Z,14.29
2022-09-24T22:12:56.114Z,14.22
2022-09-24T22:15:59.799Z,14.41
2022-09-24T22:19:03.431Z,14.39
2022-09-24T22:22:04.846Z,14.47
2022-09-24T22:25:06.882Z,14.52
2022-09-24T22:28:08.297Z,14.56
2022-09-24T22:31:13.178Z,14.62
2022-09-24T22:34:33.028Z,14.60
2022-09-24T22:37:34.561Z,14.56
2022-09-24T22:40:36.140Z,14.62
2022-09-24T22:43:38.937Z,14.68
2022-09-24T22:46:41.306Z,14.67
2022-09-24T22:49:42.867Z,14.71
2022-09-24T22:52:44.248Z,14.74
2022-09-24T22:55:48.215Z,14.75
2022-09-24T22:58:56.075Z,14.75
2022-09-24T23:01:57.502Z,14.72
2022-09-24T23:04:59.412Z,14.67
2022-09-24T23:08:01.751Z,14.67
2022-09-24T23:11:15.274Z,14.68
2022-09-24T23:14:16.933Z,14.74
2022-09-24T23:17:19.093Z,14.77
2022-09-24T23:20:21.867Z,14.72
2022-09-24T23:23:23.247Z,14.72
2022-09-24T23:26:25.954Z,14.72
2022-09-24T23:29:27.328Z,14.76
2022-09-24T23:32:28.735Z,14.65
2022-09-24T23:35:30.167Z,14.65
2022-09-24T23:38:31.759Z,14.58
2022-09-24T23:41:33.373Z,14.54
2022-09-24T23:44:35.058Z,14.57
2022-09-24T23:47:36.464Z,14.64
2022-09-24T23:50:37.970Z,14.63
2022-09-24T23:53:39.793Z,14.67
2022-09-24T23:56:41.154Z,14.67
2022-09-24T23:59:42.525Z,14.71
